Time;durP1;ratioP1;P1;durP2;ratioP2;P2;SDS_P1;SDS_P2;PMS_P1;PMS_P2;Temp;Humidity;BMP_temperature;BMP_pressure;BME280_temperature;BME280_humidity;BME280_pressure;Samples;Min_cycle;Max_cycle;Signal;HPM_P1;HPM_P2
2023/05/23 00:00:58;;;;;;;;;18.50;15.25;;;;;15.56;71.54;101973.25;5031418;28;9850;-66
2023/05/23 00:03:25;;;;;;;;;21.00;15.75;;;;;15.48;71.51;101976.97;5030371;28;9716;-68
2023/05/23 00:05:52;;;;;;;;;21.25;18.75;;;;;15.38;72.04;101971.03;5031448;28;9558;-67
2023/05/23 00:08:19;;;;;;;;;19.00;17.50;;;;;15.40;72.31;101981.72;5029739;28;9706;-68
2023/05/23 00:10:45;;;;;;;;;22.00;16.75;;;;;15.37;71.37;101980.22;5030959;28;9744;-67
2023/05/23 00:13:13;;;;;;;;;20.00;18.75;;;;;15.21;72.46;101972.38;5029518;28;9761;-68
2023/05/23 00:15:41;;;;;;;;;16.25;14.50;;;;;15.23;72.66;101990.16;5032175;28;9884;-67
2023/05/23 00:18:09;;;;;;;;;13.25;11.75;;;;;15.18;72.18;101986.31;5031181;28;9612;-67
2023/05/23 00:20:39;;;;;;;;;10.25;9.50;;;;;15.21;72.47;101992.19;5032196;28;9640;-67
2023/05/23 00:23:07;;;;;;;;;7.25;6.75;;;;;15.21;71.82;101985.94;5027672;28;9520;-68
2023/05/23 00:25:34;;;;;;;;;12.00;10.75;;;;;15.09;71.61;101975.63;5031915;28;9532;-67
2023/05/23 00:28:05;;;;;;;;;9.50;6.75;;;;;15.08;72.51;101973.13;5043826;28;9628;-68
2023/05/23 00:30:32;;;;;;;;;8.25;8.25;;;;;15.15;72.38;101984.00;5027647;28;9452;-66
2023/05/23 00:32:59;;;;;;;;;7.50;6.00;;;;;15.18;72.46;101981.75;5032056;28;9469;-68
2023/05/23 00:35:26;;;;;;;;;9.00;9.00;;;;;15.23;72.30;101984.72;5029461;28;9633;-67
2023/05/23 00:37:54;;;;;;;;;8.00;7.75;;;;;15.33;72.42;101990.63;5023631;28;9451;-68
2023/05/23 00:40:21;;;;;;;;;10.00;9.75;;;;;15.34;72.05;101992.28;5029128;28;9519;-67
2023/05/23 00:42:48;;;;;;;;;8.25;8.00;;;;;15.34;71.63;101995.00;5026387;28;9535;-66
2023/05/23 00:45:15;;;;;;;;;14.50;13.50;;;;;15.29;71.87;101991.22;5031289;28;9457;-67
2023/05/23 00:47:44;;;;;;;;;10.00;10.00;;;;;15.29;72.48;101986.63;5044073;28;9691;-68
2023/05/23 00:50:13;;;;;;;;;11.75;9.25;;;;;15.29;72.68;101996.66;5030278;28;9515;-67
2023/05/23 00:52:41;;;;;;;;;13.00;10.00;;;;;15.31;72.59;101991.84;5031793;28;9534;-68
2023/05/23 00:55:09;;;;;;;;;12.00;10.25;;;;;15.28;72.18;101992.25;5019884;28;9441;-68
2023/05/23 00:57:40;;;;;;;;;8.50;7.50;;;;;15.22;72.75;101996.59;5014269;28;9618;-68
2023/05/23 01:00:11;;;;;;;;;12.00;12.00;;;;;15.29;73.39;102000.19;5030097;28;9610;-66
2023/05/23 01:02:43;;;;;;;;;12.75;10.50;;;;;15.32;72.87;102010.66;5029579;28;9606;-67
2023/05/23 01:05:16;;;;;;;;;16.50;11.50;;;;;15.32;72.82;101998.97;5042006;28;9615;-68
2023/05/23 01:07:44;;;;;;;;;9.75;8.50;;;;;15.29;73.12;102000.19;5028355;28;9443;-66
2023/05/23 01:10:11;;;;;;;;;13.75;11.00;;;;;15.30;73.20;102001.03;5010123;28;9483;-67
2023/05/23 01:13:18;;;;;;;;;13.50;13.25;;;;;15.23;72.05;101998.28;5026928;28;9425;-67
2023/05/23 01:15:57;;;;;;;;;15.75;14.25;;;;;15.20;73.05;101995.97;5029297;28;9655;-66
2023/05/23 01:18:40;;;;;;;;;14.50;12.00;;;;;15.20;73.18;101995.13;5046397;28;9521;-66
2023/05/23 01:21:25;;;;;;;;;13.00;11.50;;;;;15.20;72.31;102000.53;5035619;28;9615;-67
2023/05/23 01:24:07;;;;;;;;;14.75;12.25;;;;;15.11;72.60;102008.00;5018381;28;9690;-67
2023/05/23 01:26:52;;;;;;;;;13.00;12.25;;;;;15.14;73.00;102007.56;5043410;28;9599;-67
2023/05/23 01:29:26;;;;;;;;;13.25;10.00;;;;;15.15;72.26;102000.28;5010270;28;9646;-68
2023/05/23 01:31:56;;;;;;;;;10.75;10.50;;;;;15.18;71.87;102002.59;5027468;28;9679;-66
2023/05/23 01:34:23;;;;;;;;;11.75;11.25;;;;;15.18;71.48;102000.72;5027923;28;9544;-70
2023/05/23 01:36:55;;;;;;;;;17.50;16.25;;;;;15.13;71.25;102015.91;5045747;28;9741;-67
2023/05/23 01:39:21;;;;;;;;;14.25;13.75;;;;;15.01;71.18;102002.88;5023877;28;9716;-68
2023/05/23 01:41:52;;;;;;;;;15.00;13.00;;;;;14.98;72.13;102002.44;5012170;28;9699;-68
2023/05/23 01:44:20;;;;;;;;;13.75;12.75;;;;;14.91;71.94;102004.22;5037530;28;9772;-67
2023/05/23 01:46:47;;;;;;;;;14.50;14.50;;;;;14.88;72.09;102010.06;5025298;28;9799;-68
2023/05/23 01:49:16;;;;;;;;;20.00;14.25;;;;;14.87;72.33;101994.81;5029197;28;9877;-68
2023/05/23 01:51:44;;;;;;;;;13.75;11.25;;;;;14.98;72.72;102008.69;5021902;28;9909;-69
2023/05/23 01:54:13;;;;;;;;;16.25;11.25;;;;;15.05;71.84;101993.31;5033181;28;9532;-69
2023/05/23 01:56:41;;;;;;;;;13.25;11.25;;;;;15.14;72.00;101991.31;5029737;28;10220;-69
2023/05/23 01:59:08;;;;;;;;;15.00;13.75;;;;;15.12;71.54;101987.97;5027413;28;9544;-67
2023/05/23 02:01:36;;;;;;;;;11.00;10.50;;;;;15.14;71.15;101996.72;5045603;28;9619;-68
2023/05/23 02:04:03;;;;;;;;;9.75;9.50;;;;;15.17;71.29;102000.94;5041950;28;9565;-67
2023/05/23 02:06:30;;;;;;;;;17.50;14.50;;;;;15.13;70.93;102005.91;5030397;28;9610;-68
2023/05/23 02:08:57;;;;;;;;;15.75;11.75;;;;;15.07;70.89;102015.69;5028709;28;10384;-68
2023/05/23 02:11:23;;;;;;;;;13.75;11.50;;;;;15.01;70.86;102010.19;5045793;28;9687;-68
2023/05/23 02:13:50;;;;;;;;;11.00;10.00;;;;;14.96;71.21;102020.78;5026042;28;9641;-68
2023/05/23 02:16:17;;;;;;;;;14.75;14.00;;;;;14.91;70.66;102020.50;5044867;28;9552;-68
2023/05/23 02:18:45;;;;;;;;;7.50;5.25;;;;;14.79;70.87;102025.63;5045319;28;9787;-68
2023/05/23 02:21:11;;;;;;;;;15.25;10.75;;;;;14.79;71.15;102028.34;5030152;28;9579;-67
2023/05/23 02:23:38;;;;;;;;;16.75;11.50;;;;;14.82;70.52;102036.06;5029284;28;9700;-68
2023/05/23 02:26:04;;;;;;;;;12.75;9.00;;;;;14.73;69.91;102035.34;5029949;28;9692;-68
2023/05/23 02:28:31;;;;;;;;;14.00;10.75;;;;;14.75;70.51;102044.16;5027449;28;9591;-67
2023/05/23 02:30:57;;;;;;;;;12.50;10.75;;;;;14.80;70.36;102046.28;5030189;28;9627;-68
2023/05/23 02:33:24;;;;;;;;;13.25;8.00;;;;;14.78;69.77;102051.88;5027751;28;9539;-67
2023/05/23 02:35:51;;;;;;;;;12.25;12.00;;;;;14.82;70.41;102055.88;5027936;28;9569;-68
2023/05/23 02:38:19;;;;;;;;;13.00;11.00;;;;;14.92;70.10;102052.88;5044946;28;9444;-68
2023/05/23 02:40:46;;;;;;;;;10.00;9.25;;;;;14.90;69.32;102049.50;5024917;28;9604;-67
2023/05/23 02:43:12;;;;;;;;;14.25;12.25;;;;;14.80;69.37;102055.25;5042336;28;9528;-67
2023/05/23 02:45:39;;;;;;;;;7.00;6.50;;;;;14.72;69.36;102062.66;5037981;28;9545;-68
2023/05/23 02:48:06;;;;;;;;;7.75;7.75;;;;;14.66;69.22;102055.28;5029770;28;9530;-67
2023/05/23 02:50:32;;;;;;;;;10.75;8.00;;;;;14.72;69.17;102057.22;5046679;28;9548;-67
2023/05/23 02:52:59;;;;;;;;;10.00;9.00;;;;;14.68;69.10;102056.78;5027538;28;9527;-68
2023/05/23 02:55:26;;;;;;;;;9.00;9.00;;;;;14.65;69.14;102068.00;5032348;28;9521;-67
2023/05/23 02:57:53;;;;;;;;;11.25;9.50;;;;;14.68;69.02;102064.91;5031975;28;9463;-68
2023/05/23 03:00:20;;;;;;;;;9.25;7.00;;;;;14.69;69.11;102065.75;5045995;28;9544;-68
2023/05/23 03:02:51;;;;;;;;;7.00;6.67;;;;;14.71;69.30;102064.53;5035465;28;9495;-68
2023/05/23 03:05:17;;;;;;;;;9.25;9.25;;;;;14.67;68.87;102065.94;5033175;28;9294;-68
2023/05/23 03:07:44;;;;;;;;;9.75;7.00;;;;;14.62;68.77;102056.69;5033742;28;9621;-68
2023/05/23 03:10:11;;;;;;;;;5.00;4.67;;;;;14.63;69.04;102061.94;5031072;28;9537;-68
2023/05/23 03:12:37;;;;;;;;;5.25;5.25;;;;;14.62;68.79;102062.94;5039023;28;9316;-68
2023/05/23 03:15:04;;;;;;;;;9.50;7.00;;;;;14.49;68.11;102071.75;5044476;28;9472;-68
2023/05/23 03:17:31;;;;;;;;;7.00;6.50;;;;;14.45;69.04;102070.44;5032333;28;9527;-68
2023/05/23 03:19:57;;;;;;;;;5.75;5.25;;;;;14.46;69.31;102071.28;5032029;28;9478;-68
2023/05/23 03:22:24;;;;;;;;;9.25;6.50;;;;;14.43;68.70;102075.22;5039203;28;9692;-68
2023/05/23 03:24:50;;;;;;;;;8.50;6.25;;;;;14.44;69.34;102070.63;5030426;28;9707;-67
2023/05/23 03:27:17;;;;;;;;;6.00;5.00;;;;;14.41;68.86;102077.25;5037149;28;9539;-68
2023/05/23 03:29:43;;;;;;;;;5.75;5.00;;;;;14.44;69.04;102093.16;5047570;28;9534;-67
2023/05/23 03:32:10;;;;;;;;;6.25;5.00;;;;;14.29;68.55;102078.78;5041409;28;9506;-68
2023/05/23 03:34:37;;;;;;;;;10.25;6.00;;;;;14.20;68.53;102075.31;5037968;28;9600;-68
2023/05/23 03:37:04;;;;;;;;;4.50;4.50;;;;;14.18;68.94;102081.94;5031267;28;9775;-67
2023/05/23 03:39:30;;;;;;;;;6.00;5.00;;;;;14.05;68.70;102080.75;5041683;28;9792;-68
2023/05/23 03:41:57;;;;;;;;;6.00;6.00;;;;;14.09;69.12;102089.34;5033373;28;9568;-67
2023/05/23 03:44:24;;;;;;;;;8.00;6.25;;;;;14.07;69.17;102099.53;5026589;28;9549;-66
2023/05/23 03:46:50;;;;;;;;;8.75;5.00;;;;;13.96;68.65;102089.16;5047244;28;10466;-68
2023/05/23 03:49:18;;;;;;;;;7.00;6.00;;;;;13.85;69.15;102099.44;5027208;28;9673;-67
2023/05/23 03:51:44;;;;;;;;;9.00;7.00;;;;;13.87;69.19;102101.09;5032185;28;9937;-67
2023/05/23 03:54:16;;;;;;;;;4.00;3.00;;;;;13.87;68.85;102096.53;5041277;28;9770;-66
2023/05/23 03:56:42;;;;;;;;;4.50;4.50;;;;;13.91;69.42;102099.72;5031373;28;9602;-68
2023/05/23 03:59:09;;;;;;;;;7.00;6.00;;;;;13.93;69.03;102103.88;5047445;28;9831;-67
2023/05/23 04:01:36;;;;;;;;;8.75;7.00;;;;;13.95;68.80;102109.13;5031266;28;9743;-67
2023/05/23 04:04:03;;;;;;;;;10.25;5.25;;;;;13.94;68.77;102108.28;5044021;28;9768;-66
2023/05/23 04:06:32;;;;;;;;;5.00;5.00;;;;;14.06;69.05;102114.94;5038789;28;9771;-66
2023/05/23 04:09:00;;;;;;;;;9.50;6.50;;;;;14.01;68.17;102117.34;5044137;28;9700;-68
2023/05/23 04:11:26;;;;;;;;;8.50;7.25;;;;;13.93;68.43;102113.88;5027846;28;9684;-67
2023/05/23 04:13:53;;;;;;;;;6.00;6.00;;;;;13.89;67.96;102116.13;5017031;28;9638;-70
2023/05/23 04:16:21;;;;;;;;;5.75;4.75;;;;;13.91;68.23;102116.78;5051298;28;9678;-68
2023/05/23 04:18:48;;;;;;;;;6.00;6.00;;;;;13.99;68.11;102115.88;5030645;28;9760;-67
2023/05/23 04:21:15;;;;;;;;;5.75;5.75;;;;;14.10;67.79;102121.66;5030358;28;9631;-67
2023/05/23 04:24:02;;;;;;;;;2.75;1.25;;;;;14.19;67.17;102122.41;5044994;28;10327;-68
2023/05/23 04:26:29;;;;;;;;;11.00;7.00;;;;;14.18;67.57;102119.84;5038845;28;10240;-66
2023/05/23 04:28:55;;;;;;;;;5.50;5.00;;;;;14.16;67.00;102124.63;5031407;28;10415;-68
2023/05/23 04:31:22;;;;;;;;;5.75;5.75;;;;;14.15;66.88;102133.78;5044884;28;9614;-67
2023/05/23 04:33:49;;;;;;;;;7.50;6.00;;;;;14.09;66.78;102140.78;5024228;28;9528;-68
2023/05/23 04:36:17;;;;;;;;;8.50;5.00;;;;;14.05;66.50;102147.59;5038064;28;9580;-67
2023/05/23 04:38:49;;;;;;;;;11.00;9.25;;;;;14.02;66.68;102158.81;5030542;28;9694;-67
2023/05/23 04:41:15;;;;;;;;;6.50;6.50;;;;;14.07;66.63;102162.63;5060669;23;9825;-67
2023/05/23 04:44:01;;;;;;;;;5.50;5.25;;;;;14.06;66.25;102165.53;5030714;28;9705;-66
2023/05/23 04:46:35;;;;;;;;;9.00;7.25;;;;;13.99;66.17;102165.44;5012380;28;10379;-67
2023/05/23 04:49:37;;;;;;;;;13.25;13.00;;;;;13.91;64.79;102153.84;5026565;28;10476;-67
2023/05/23 04:52:04;;;;;;;;;10.50;9.00;;;;;13.79;65.42;102161.56;5021865;28;9805;-67
2023/05/23 04:54:31;;;;;;;;;7.50;7.00;;;;;13.70;64.74;102162.66;5024864;28;9938;-68
2023/05/23 04:57:02;;;;;;;;;7.75;7.75;;;;;13.64;65.12;102166.94;5013388;28;9708;-67
2023/05/23 04:59:29;;;;;;;;;7.50;7.50;;;;;13.58;64.45;102163.09;5013656;28;9937;-67
2023/05/23 05:01:55;;;;;;;;;6.75;6.75;;;;;13.61;65.23;102170.00;5031578;28;9784;-67
2023/05/23 05:04:22;;;;;;;;;11.25;8.00;;;;;13.62;64.89;102165.44;5014155;28;9845;-66
2023/05/23 05:06:49;;;;;;;;;9.00;7.75;;;;;13.71;65.23;102172.47;5029607;28;9832;-67
2023/05/23 05:09:16;;;;;;;;;9.50;9.00;;;;;13.72;64.54;102172.25;5005469;28;9758;-66
2023/05/23 05:11:43;;;;;;;;;8.25;8.25;;;;;13.76;65.25;102181.69;5009898;28;9956;-67
2023/05/23 05:14:10;;;;;;;;;12.00;8.00;;;;;13.82;64.98;102170.16;5019235;28;9839;-67
2023/05/23 05:16:37;;;;;;;;;9.75;9.75;;;;;13.87;65.35;102187.72;5012517;28;9845;-67
2023/05/23 05:19:04;;;;;;;;;11.50;10.50;;;;;13.73;64.11;102182.09;5012395;28;9927;-66
2023/05/23 05:21:31;;;;;;;;;12.50;10.00;;;;;13.56;63.82;102194.03;5020353;28;9867;-66
2023/05/23 05:23:58;;;;;;;;;8.00;8.00;;;;;13.47;64.29;102195.97;5016196;28;9850;-65
2023/05/23 05:26:25;;;;;;;;;11.75;9.75;;;;;13.44;64.68;102198.19;5044493;28;10730;-66
2023/05/23 05:28:52;;;;;;;;;8.25;6.00;;;;;13.43;65.02;102202.78;5013073;28;9983;-67
2023/05/23 05:31:20;;;;;;;;;13.75;10.00;;;;;13.44;65.29;102204.44;5013557;28;10044;-66
2023/05/23 05:33:46;;;;;;;;;9.00;8.00;;;;;13.41;65.52;102214.78;5028269;28;9934;-66
2023/05/23 05:36:14;;;;;;;;;7.50;7.50;;;;;13.36;65.62;102207.19;5021942;28;10630;-65
2023/05/23 05:38:42;;;;;;;;;9.00;7.00;;;;;13.32;65.82;102214.84;4999808;28;9909;-66
2023/05/23 05:41:09;;;;;;;;;7.75;7.75;;;;;13.39;65.81;102212.25;5006208;28;9913;-67
2023/05/23 05:43:40;;;;;;;;;13.00;10.50;;;;;13.35;65.55;102205.53;5017001;28;9825;-67
2023/05/23 05:46:07;;;;;;;;;8.00;6.00;;;;;13.38;66.39;102213.28;5021820;28;9988;-66
2023/05/23 05:48:34;;;;;;;;;8.75;8.00;;;;;13.37;66.60;102214.31;5012740;28;10031;-67
2023/05/23 05:51:05;;;;;;;;;7.25;6.50;;;;;13.43;66.92;102212.75;5045932;28;10768;-67
2023/05/23 05:53:32;;;;;;;;;8.25;7.50;;;;;13.49;67.09;102212.00;5042962;28;9982;-66
2023/05/23 05:55:59;;;;;;;;;11.00;6.25;;;;;13.53;67.28;102221.44;5028188;28;9823;-67
2023/05/23 05:58:26;;;;;;;;;9.00;9.00;;;;;13.52;67.03;102214.38;5012151;28;9795;-65
2023/05/23 06:00:57;;;;;;;;;5.00;3.75;;;;;13.44;68.16;102226.09;5012193;28;9926;-67
2023/05/23 06:03:26;;;;;;;;;2.75;2.75;;;;;13.36;68.34;102229.69;5025626;28;10612;-67
2023/05/23 06:05:53;;;;;;;;;5.00;4.75;;;;;13.21;68.75;102223.34;5037010;28;9725;-67
2023/05/23 06:08:21;;;;;;;;;6.50;3.50;;;;;13.09;69.30;102228.31;5027658;28;9717;-66
2023/05/23 06:10:48;;;;;;;;;5.00;3.25;;;;;13.08;69.96;102239.28;5042307;28;9782;-67
2023/05/23 06:13:15;;;;;;;;;4.50;4.00;;;;;13.17;70.56;102235.53;5009824;28;10680;-66
2023/05/23 06:15:45;;;;;;;;;2.25;2.25;;;;;13.19;69.82;102235.34;5010278;28;9924;-66
2023/05/23 06:18:12;;;;;;;;;7.50;5.00;;;;;13.09;69.41;102240.97;5029125;28;9526;-67
2023/05/23 06:20:42;;;;;;;;;3.00;2.00;;;;;13.03;69.32;102247.06;4994599;28;10536;-68
2023/05/23 06:23:13;;;;;;;;;2.00;2.00;;;;;13.01;69.88;102241.03;5007022;28;9649;-66
2023/05/23 06:25:40;;;;;;;;;3.00;3.00;;;;;13.12;69.86;102248.72;5008844;28;9670;-67
2023/05/23 06:28:06;;;;;;;;;4.50;2.00;;;;;13.19;69.27;102249.69;5027108;28;10022;-66
2023/05/23 06:30:34;;;;;;;;;2.25;2.25;;;;;13.23;69.47;102248.34;5010228;28;9869;-67
2023/05/23 06:33:03;;;;;;;;;3.00;3.00;;;;;13.20;68.87;102259.50;5031321;28;9666;-66
2023/05/23 06:35:29;;;;;;;;;4.25;4.00;;;;;13.19;69.34;102255.09;5040057;28;9850;-69
2023/05/23 06:37:59;;;;;;;;;2.75;2.75;;;;;13.21;68.79;102257.66;5011210;28;9714;-66
2023/05/23 06:40:25;;;;;;;;;4.00;3.75;;;;;13.30;68.70;102245.78;5044109;28;9779;-66
2023/05/23 06:42:52;;;;;;;;;2.50;2.50;;;;;13.33;67.57;102258.97;5030797;28;9869;-66
2023/05/23 06:45:29;;;;;;;;;6.00;3.25;;;;;13.36;67.05;102255.88;5027985;28;9601;-66
2023/05/23 06:47:56;;;;;;;;;2.50;2.50;;;;;13.36;66.51;102243.19;5029663;28;9623;-66
2023/05/23 06:50:23;;;;;;;;;1.50;1.50;;;;;13.46;65.68;102250.28;5020346;28;9898;-67
2023/05/23 06:52:51;;;;;;;;;2.50;2.50;;;;;13.63;64.86;102249.13;5034851;28;9672;-67
2023/05/23 06:55:18;;;;;;;;;1.50;1.50;;;;;13.65;63.58;102255.19;5013762;28;9599;-67
2023/05/23 06:57:50;;;;;;;;;3.50;3.00;;;;;13.60;63.14;102257.59;5029077;28;9450;-67
2023/05/23 07:00:19;;;;;;;;;9.00;4.00;;;;;13.43;62.58;102247.91;5027708;28;9543;-68
2023/05/23 07:03:02;;;;;;;;;6.50;3.00;;;;;13.39;62.15;102265.53;5010793;28;9603;-67
2023/05/23 07:05:29;;;;;;;;;4.50;2.00;;;;;13.34;62.16;102260.66;5008247;28;9773;-68
2023/05/23 07:07:56;;;;;;;;;4.00;2.75;;;;;13.41;61.80;102255.34;5019034;28;9689;-68
2023/05/23 07:10:25;;;;;;;;;2.00;2.00;;;;;13.47;62.05;102265.47;5027435;28;9689;-69
2023/05/23 07:12:54;;;;;;;;;4.50;2.00;;;;;13.39;62.13;102273.63;5044292;28;9708;-67
2023/05/23 07:15:21;;;;;;;;;4.00;1.00;;;;;13.42;62.32;102268.72;5010266;28;9538;-68
2023/05/23 07:18:03;;;;;;;;;4.50;3.00;;;;;13.53;61.61;102278.25;5004078;28;9532;-68
2023/05/23 07:20:32;;;;;;;;;5.00;2.00;;;;;13.49;61.06;102271.53;5016642;28;9816;-67
2023/05/23 07:23:08;;;;;;;;;1.75;1.75;;;;;13.48;61.69;102272.56;5017653;28;9608;-67
2023/05/23 07:25:35;;;;;;;;;7.50;4.00;;;;;13.41;61.61;102272.44;5040317;28;9656;-69
2023/05/23 07:28:09;;;;;;;;;1.25;1.25;;;;;13.54;61.92;102279.97;4995996;28;9684;-68
2023/05/23 07:30:36;;;;;;;;;1.75;1.75;;;;;13.70;61.98;102279.03;5044280;28;9668;-68
2023/05/23 07:33:03;;;;;;;;;2.75;1.00;;;;;13.74;61.60;102270.38;5026739;28;9534;-67
2023/05/23 07:35:31;;;;;;;;;4.25;2.00;;;;;13.59;61.36;102273.00;5001077;28;9604;-69
2023/05/23 07:37:59;;;;;;;;;2.00;2.00;;;;;13.61;60.90;102280.91;5013023;28;9602;-67
2023/05/23 07:40:26;;;;;;;;;3.50;3.50;;;;;13.58;60.54;102271.31;5006157;28;9799;-68
2023/05/23 07:42:53;;;;;;;;;1.00;1.00;;;;;13.66;60.91;102283.94;5006654;28;9613;-67
2023/05/23 07:45:19;;;;;;;;;5.00;3.00;;;;;13.78;60.65;102287.94;5014390;28;10237;-68
2023/05/23 07:47:46;;;;;;;;;1.00;1.00;;;;;13.94;60.76;102286.97;5011304;28;9592;-68
2023/05/23 07:50:13;;;;;;;;;2.75;2.00;;;;;14.12;61.04;102289.34;5010671;28;10247;-68
2023/05/23 07:52:41;;;;;;;;;2.75;1.25;;;;;14.12;59.13;102289.34;5007506;28;9536;-67
2023/05/23 07:55:10;;;;;;;;;3.00;2.00;;;;;14.09;57.77;102290.53;5039244;28;9468;-67
2023/05/23 07:57:37;;;;;;;;;1.50;1.50;;;;;14.17;58.58;102299.63;5029254;28;10207;-67
2023/05/23 08:00:05;;;;;;;;;4.50;2.75;;;;;14.28;59.65;102293.78;5011630;28;9404;-68
2023/05/23 08:02:40;;;;;;;;;1.00;1.00;;;;;14.42;59.24;102292.13;5026940;28;9641;-68
2023/05/23 08:05:11;;;;;;;;;2.50;2.50;;;;;14.56;59.13;102291.34;5024235;28;9309;-68
2023/05/23 08:07:37;;;;;;;;;3.25;1.75;;;;;14.71;59.28;102288.66;5029987;28;9449;-67
2023/05/23 08:10:04;;;;;;;;;2.00;2.00;;;;;14.87;58.61;102301.16;5030205;28;9387;-68
2023/05/23 08:12:32;;;;;;;;;2.00;2.00;;;;;14.78;57.08;102301.25;5043082;28;9315;-68
2023/05/23 08:15:07;;;;;;;;;3.25;2.75;;;;;14.74;56.43;102305.38;4998321;28;9475;-67
2023/05/23 08:17:41;;;;;;;;;4.00;3.75;;;;;14.74;56.30;102293.69;5020561;28;9382;-66
2023/05/23 08:20:09;;;;;;;;;1.50;1.50;;;;;14.62;56.75;102314.13;5026246;28;10128;-68
2023/05/23 08:22:35;;;;;;;;;4.00;3.25;;;;;14.39;56.83;102322.31;5021754;28;9455;-67
2023/05/23 08:25:04;;;;;;;;;5.75;5.50;;;;;14.30;57.39;102314.25;5028586;28;9536;-68
2023/05/23 08:27:34;;;;;;;;;6.00;4.00;;;;;14.33;57.22;102315.75;5005676;28;9545;-68
2023/05/23 08:30:09;;;;;;;;;4.00;2.00;;;;;14.29;56.69;102320.69;5029276;28;9502;-67
2023/05/23 08:32:37;;;;;;;;;4.00;2.00;;;;;14.25;56.52;102323.94;5024464;28;9384;-68
2023/05/23 08:35:04;;;;;;;;;1.75;1.50;;;;;14.27;57.14;102320.03;5045007;28;9456;-68
2023/05/23 08:37:31;;;;;;;;;2.50;2.50;;;;;14.26;57.14;102315.66;5014472;28;10118;-68
2023/05/23 08:39:58;;;;;;;;;2.00;2.00;;;;;14.29;56.92;102322.53;5002749;28;9388;-68
2023/05/23 08:42:38;;;;;;;;;5.00;4.00;;;;;14.25;56.57;102318.53;5023131;28;9368;-68
2023/05/23 08:45:08;;;;;;;;;2.00;2.00;;;;;14.22;56.24;102322.44;5028428;28;9483;-67
2023/05/23 08:47:41;;;;;;;;;7.75;6.00;;;;;14.25;56.20;102311.22;5021957;28;9412;-67
2023/05/23 08:50:11;;;;;;;;;2.50;2.50;;;;;14.33;56.55;102307.59;5020762;28;9720;-68
2023/05/23 08:52:43;;;;;;;;;3.75;2.50;;;;;14.42;56.68;102321.91;5010371;28;9475;-68
2023/05/23 08:55:11;;;;;;;;;2.00;1.00;;;;;14.48;57.19;102321.19;4994530;28;9550;-67
2023/05/23 08:57:42;;;;;;;;;3.00;2.25;;;;;14.33;57.30;102327.41;5026182;28;9467;-68
2023/05/23 09:00:26;;;;;;;;;3.00;3.00;;;;;14.31;56.78;102328.63;5024883;28;9484;-68
2023/05/23 09:02:53;;;;;;;;;3.75;2.00;;;;;14.30;56.90;102345.91;5024232;28;9277;-67
2023/05/23 09:05:41;;;;;;;;;1.00;1.00;;;;;14.23;54.77;102337.69;5024583;28;9415;-68
2023/05/23 09:08:08;;;;;;;;;2.00;2.00;;;;;14.33;55.13;102335.53;5044522;28;9236;-67
2023/05/23 09:10:35;;;;;;;;;3.33;1.33;;;;;14.51;54.60;102329.00;5028287;28;9534;-68
2023/05/23 09:13:03;;;;;;;;;1.00;1.00;;;;;14.64;55.06;102331.91;5027411;28;9306;-68
2023/05/23 09:15:31;;;;;;;;;3.00;2.33;;;;;14.66;55.81;102356.09;5041130;28;9382;-68
2023/05/23 09:18:00;;;;;;;;;6.00;1.00;;;;;14.57;56.24;102337.22;5027413;28;10068;-68
2023/05/23 09:20:27;;;;;;;;;6.33;4.67;;;;;14.57;56.57;102349.94;5011561;28;9233;-68
2023/05/23 09:22:58;;;;;;;;;1.67;1.67;;;;;14.53;56.57;102344.03;5025934;28;9358;-67
2023/05/23 09:25:27;;;;;;;;;3.00;1.00;;;;;14.74;56.53;102354.16;5004889;28;9231;-68
2023/05/23 09:27:55;;;;;;;;;3.00;3.00;;;;;14.65;54.93;102344.44;5012460;28;9432;-68
2023/05/23 09:30:22;;;;;;;;;11.00;10.75;;;;;14.77;54.13;102352.97;5029670;28;9319;-68
2023/05/23 09:32:59;;;;;;;;;6.50;5.00;;;;;14.77;54.57;102356.50;5011740;28;9766;-67
2023/05/23 09:35:31;;;;;;;;;5.50;2.50;;;;;14.77;54.74;102359.22;5021114;28;9591;-67
2023/05/23 09:37:58;;;;;;;;;4.00;4.00;;;;;14.78;54.92;102360.88;5026696;28;9353;-67
2023/05/23 09:40:30;;;;;;;;;2.00;2.00;;;;;14.72;55.48;102358.94;5010335;28;9412;-67
2023/05/23 09:43:02;;;;;;;;;2.67;2.67;;;;;14.66;55.55;102372.38;5036517;28;9382;-67
2023/05/23 09:45:30;;;;;;;;;3.00;2.00;;;;;14.67;55.97;102372.22;5021901;28;9465;-67
2023/05/23 09:48:00;;;;;;;;;5.00;5.00;;;;;14.73;55.44;102368.75;5009044;28;9404;-67
2023/05/23 09:50:32;;;;;;;;;2.00;2.00;;;;;14.88;55.43;102367.94;5026353;28;9588;-67
2023/05/23 09:53:00;;;;;;;;;3.67;3.67;;;;;14.96;54.28;102365.97;5026007;28;9450;-66
2023/05/23 09:55:27;;;;;;;;;3.33;2.00;;;;;15.02;54.67;102361.66;5024004;28;9402;-67
2023/05/23 09:57:57;;;;;;;;;3.00;2.50;;;;;15.03;54.61;102377.78;5024363;28;9343;-67
2023/05/23 10:00:24;;;;;;;;;2.33;2.00;;;;;14.85;54.55;102374.56;5027641;28;9460;-67
2023/05/23 10:03:00;;;;;;;;;1.00;1.00;;;;;14.77;54.84;102386.31;5029339;28;9362;-66
2023/05/23 10:05:38;;;;;;;;;2.00;1.00;;;;;14.70;54.62;102376.41;5008134;28;9400;-67
2023/05/23 10:08:13;;;;;;;;;3.00;3.00;;;;;14.68;55.67;102383.88;5028573;28;9316;-66
2023/05/23 10:10:55;;;;;;;;;6.75;4.00;;;;;14.65;55.68;102386.97;5030232;28;9440;-67
2023/05/23 10:13:25;;;;;;;;;2.33;2.33;;;;;14.59;55.79;102383.13;5019697;28;9467;-67
2023/05/23 10:16:01;;;;;;;;;2.75;2.00;;;;;14.64;55.92;102385.28;5036683;28;9454;-67
2023/05/23 10:18:37;;;;;;;;;2.00;1.00;;;;;14.58;55.34;102389.53;5027190;28;9454;-68
2023/05/23 10:21:10;;;;;;;;;5.00;3.00;;;;;14.64;55.58;102393.41;5029499;28;9372;-68
2023/05/23 10:23:38;;;;;;;;;3.00;3.00;;;;;14.66;55.15;102385.91;5025596;28;9468;-66
2023/05/23 10:26:05;;;;;;;;;3.75;3.75;;;;;14.78;55.26;102382.59;5027228;28;9431;-67
2023/05/23 10:28:32;;;;;;;;;3.00;3.00;;;;;14.97;54.88;102374.94;5027221;28;9468;-68
2023/05/23 10:30:59;;;;;;;;;4.33;2.00;;;;;15.17;53.49;102388.81;5011087;28;9464;-67
2023/05/23 10:33:30;;;;;;;;;3.00;2.33;;;;;15.09;52.81;102379.72;5003120;28;9360;-67
2023/05/23 10:36:07;;;;;;;;;4.33;4.33;;;;;15.03;53.18;102390.50;5017409;28;9937;-67
2023/05/23 10:39:00;;;;;;;;;3.00;2.00;;;;;14.94;52.52;102388.88;5011023;28;9327;-67
2023/05/23 10:41:57;;;;;;;;;5.00;3.67;;;;;15.00;52.97;102382.72;5054235;22;9373;-69
2023/05/23 10:44:31;;;;;;;;;2.00;1.33;;;;;15.04;52.65;102392.16;5037945;28;9454;-68
2023/05/23 10:47:01;;;;;;;;;2.33;1.00;;;;;15.09;52.82;102379.72;5038796;28;9365;-68
2023/05/23 10:49:44;;;;;;;;;5.00;2.33;;;;;15.10;53.71;102391.41;5046013;28;9960;-69
2023/05/23 10:52:12;;;;;;;;;3.00;3.00;;;;;15.13;53.65;102388.34;5048751;28;9362;-67
2023/05/23 10:54:43;;;;;;;;;5.00;3.00;;;;;15.08;53.69;102388.06;5048065;28;9170;-68
2023/05/23 10:57:11;;;;;;;;;3.33;3.33;;;;;14.95;53.31;102395.97;5048220;28;9475;-68
2023/05/23 10:59:38;;;;;;;;;2.67;2.00;;;;;14.80;53.41;102388.69;5042493;28;9302;-68
2023/05/23 11:02:13;;;;;;;;;2.00;2.00;;;;;14.82;53.86;102383.91;5043315;28;9306;-68
2023/05/23 11:04:41;;;;;;;;;3.00;2.00;;;;;14.85;53.29;102393.53;5043748;28;9289;-67
2023/05/23 11:07:30;;;;;;;;;4.33;2.00;;;;;14.81;51.91;102392.22;5047662;28;9431;-68
2023/05/23 11:10:22;;;;;;;;;5.00;4.33;;;;;14.81;52.48;102394.94;5046751;28;9363;-67
2023/05/23 11:12:49;;;;;;;;;2.67;2.67;;;;;14.80;53.11;102401.38;5042572;28;9558;-68
2023/05/23 11:15:15;;;;;;;;;5.33;3.00;;;;;14.90;52.97;102395.69;5050761;28;9285;-68
2023/05/23 11:17:51;;;;;;;;;3.33;3.33;;;;;15.01;52.13;102389.81;5053500;28;9297;-68
2023/05/23 11:20:23;;;;;;;;;3.67;2.33;;;;;15.22;51.76;102387.19;5048988;28;9414;-68
2023/05/23 11:22:57;;;;;;;;;2.00;2.00;;;;;15.32;52.16;102401.34;5050501;28;9408;-66
2023/05/23 11:25:52;;;;;;;;;2.00;2.00;;;;;15.43;53.02;102391.03;5050744;28;9451;-66
2023/05/23 11:28:19;;;;;;;;;5.00;3.00;;;;;15.51;52.02;102388.22;5052131;28;9204;-66
2023/05/23 11:30:49;;;;;;;;;2.00;2.00;;;;;15.55;50.85;102392.22;5049105;28;9442;-68
2023/05/23 11:33:17;;;;;;;;;3.33;1.33;;;;;15.54;50.59;102398.69;5051639;28;9196;-66
2023/05/23 11:35:50;;;;;;;;;2.00;1.00;;;;;15.48;50.96;102399.47;5051003;28;9217;-67
2023/05/23 11:38:17;;;;;;;;;2.00;1.00;;;;;15.53;50.49;102408.72;5051115;28;9217;-66
2023/05/23 11:40:45;;;;;;;;;2.00;1.33;;;;;15.61;50.70;102413.19;5046641;28;9162;-67